sensor_id;sensor_type;location;lat;lon;timestamp;P1;durP1;ratioP1;P2;durP2;ratioP2
26696;SDS011;14312;52.614;13.496;2022-08-19T00:00:18;5.63;;;5.22;;
26696;SDS011;14312;52.614;13.496;2022-08-19T00:03:04;5.15;;;4.75;;
26696;SDS011;14312;52.614;13.496;2022-08-19T00:05:52;4.85;;;4.50;;
26696;SDS011;14312;52.614;13.496;2022-08-19T00:08:38;5.20;;;4.80;;
26696;SDS011;14312;52.614;13.496;2022-08-19T00:11:24;5.30;;;4.80;;
26696;SDS011;14312;52.614;13.496;2022-08-19T00:14:12;5.40;;;5.00;;
26696;SDS011;14312;52.614;13.496;2022-08-19T00:17:00;5.68;;;5.28;;
26696;SDS011;14312;52.614;13.496;2022-08-19T00:19:46;5.43;;;5.03;;
26696;SDS011;14312;52.614;13.496;2022-08-19T00:22:32;5.05;;;4.75;;
26696;SDS011;14312;52.614;13.496;2022-08-19T00:25:18;4.53;;;4.22;;
26696;SDS011;14312;52.614;13.496;2022-08-19T00:28:04;5.75;;;5.25;;
26696;SDS011;14312;52.614;13.496;2022-08-19T00:30:50;5.28;;;4.88;;
26696;SDS011;14312;52.614;13.496;2022-08-19T00:33:37;5.43;;;5.03;;
26696;SDS011;14312;52.614;13.496;2022-08-19T00:36:23;4.95;;;4.55;;
26696;SDS011;14312;52.614;13.496;2022-08-19T00:39:09;4.97;;;4.68;;
26696;SDS011;14312;52.614;13.496;2022-08-19T00:41:56;4.45;;;4.15;;
26696;SDS011;14312;52.614;13.496;2022-08-19T00:44:42;4.53;;;4.22;;
26696;SDS011;14312;52.614;13.496;2022-08-19T00:47:29;4.75;;;4.45;;
26696;SDS011;14312;52.614;13.496;2022-08-19T00:50:15;4.95;;;4.60;;
26696;SDS011;14312;52.614;13.496;2022-08-19T00:53:03;5.22;;;4.82;;
26696;SDS011;14312;52.614;13.496;2022-08-19T00:55:50;6.05;;;5.63;;
26696;SDS011;14312;52.614;13.496;2022-08-19T00:58:38;5.05;;;4.65;;
26696;SDS011;14312;52.614;13.496;2022-08-19T01:01:25;4.90;;;4.55;;
26696;SDS011;14312;52.614;13.496;2022-08-19T01:04:12;4.88;;;4.47;;
26696;SDS011;14312;52.614;13.496;2022-08-19T01:06:59;5.25;;;4.85;;
26696;SDS011;14312;52.614;13.496;2022-08-19T01:09:47;4.97;;;4.47;;
26696;SDS011;14312;52.614;13.496;2022-08-19T01:12:32;4.35;;;3.95;;
26696;SDS011;14312;52.614;13.496;2022-08-19T01:15:21;5.47;;;4.95;;
26696;SDS011;14312;52.614;13.496;2022-08-19T01:18:12;4.40;;;4.10;;
26696;SDS011;14312;52.614;13.496;2022-08-19T01:21:02;4.57;;;4.25;;
26696;SDS011;14312;52.614;13.496;2022-08-19T01:23:54;4.63;;;4.22;;
26696;SDS011;14312;52.614;13.496;2022-08-19T01:26:42;5.00;;;4.60;;
26696;SDS011;14312;52.614;13.496;2022-08-19T01:29:29;4.70;;;4.30;;
26696;SDS011;14312;52.614;13.496;2022-08-19T01:32:15;4.68;;;4.38;;
26696;SDS011;14312;52.614;13.496;2022-08-19T01:35:02;4.80;;;4.40;;
26696;SDS011;14312;52.614;13.496;2022-08-19T01:37:50;4.70;;;4.30;;
26696;SDS011;14312;52.614;13.496;2022-08-19T01:40:52;4.40;;;3.95;;
26696;SDS011;14312;52.614;13.496;2022-08-19T01:43:38;4.32;;;4.03;;
26696;SDS011;14312;52.614;13.496;2022-08-19T01:46:24;4.13;;;3.83;;
26696;SDS011;14312;52.614;13.496;2022-08-19T01:49:10;4.38;;;4.07;;
26696;SDS011;14312;52.614;13.496;2022-08-19T01:51:56;4.72;;;4.32;;
26696;SDS011;14312;52.614;13.496;2022-08-19T01:54:42;4.93;;;4.53;;
26696;SDS011;14312;52.614;13.496;2022-08-19T01:57:28;4.68;;;4.28;;
26696;SDS011;14312;52.614;13.496;2022-08-19T02:00:15;4.57;;;4.18;;
26696;SDS011;14312;52.614;13.496;2022-08-19T02:03:03;4.75;;;4.35;;
26696;SDS011;14312;52.614;13.496;2022-08-19T02:05:53;4.72;;;4.38;;
26696;SDS011;14312;52.614;13.496;2022-08-19T02:08:40;4.45;;;4.05;;
26696;SDS011;14312;52.614;13.496;2022-08-19T02:11:27;4.25;;;3.95;;
26696;SDS011;14312;52.614;13.496;2022-08-19T02:14:17;3.97;;;3.67;;
26696;SDS011;14312;52.614;13.496;2022-08-19T02:17:03;4.68;;;4.25;;
26696;SDS011;14312;52.614;13.496;2022-08-19T02:19:49;6.53;;;5.90;;
26696;SDS011;14312;52.614;13.496;2022-08-19T02:22:35;8.45;;;6.65;;
26696;SDS011;14312;52.614;13.496;2022-08-19T02:25:21;5.95;;;5.32;;
26696;SDS011;14312;52.614;13.496;2022-08-19T02:28:07;6.72;;;6.18;;
26696;SDS011;14312;52.614;13.496;2022-08-19T02:30:53;5.13;;;4.72;;
26696;SDS011;14312;52.614;13.496;2022-08-19T02:33:39;6.93;;;5.72;;
26696;SDS011;14312;52.614;13.496;2022-08-19T02:36:25;5.68;;;5.18;;
26696;SDS011;14312;52.614;13.496;2022-08-19T02:39:11;5.45;;;5.05;;
26696;SDS011;14312;52.614;13.496;2022-08-19T02:41:57;5.53;;;5.13;;
26696;SDS011;14312;52.614;13.496;2022-08-19T02:44:45;5.53;;;5.13;;
26696;SDS011;14312;52.614;13.496;2022-08-19T02:47:30;6.25;;;5.75;;
26696;SDS011;14312;52.614;13.496;2022-08-19T02:50:16;5.57;;;5.18;;
26696;SDS011;14312;52.614;13.496;2022-08-19T02:53:03;5.07;;;4.68;;
26696;SDS011;14312;52.614;13.496;2022-08-19T02:55:49;5.57;;;5.18;;
26696;SDS011;14312;52.614;13.496;2022-08-19T02:58:36;5.50;;;5.10;;
26696;SDS011;14312;52.614;13.496;2022-08-19T03:01:27;5.30;;;4.90;;
26696;SDS011;14312;52.614;13.496;2022-08-19T03:04:17;5.30;;;4.90;;
26696;SDS011;14312;52.614;13.496;2022-08-19T03:07:04;5.10;;;4.70;;
26696;SDS011;14312;52.614;13.496;2022-08-19T03:09:50;5.47;;;5.07;;
26696;SDS011;14312;52.614;13.496;2022-08-19T03:12:37;5.95;;;5.45;;
26696;SDS011;14312;52.614;13.496;2022-08-19T03:15:24;5.20;;;4.70;;
26696;SDS011;14312;52.614;13.496;2022-08-19T03:18:10;5.68;;;5.13;;
26696;SDS011;14312;52.614;13.496;2022-08-19T03:20:56;5.40;;;5.00;;
26696;SDS011;14312;52.614;13.496;2022-08-19T03:23:42;5.85;;;5.35;;
26696;SDS011;14312;52.614;13.496;2022-08-19T03:26:28;5.72;;;5.22;;
26696;SDS011;14312;52.614;13.496;2022-08-19T03:29:15;5.50;;;4.97;;
26696;SDS011;14312;52.614;13.496;2022-08-19T03:32:03;5.65;;;5.13;;
26696;SDS011;14312;52.614;13.496;2022-08-19T03:34:50;5.40;;;5.03;;
26696;SDS011;14312;52.614;13.496;2022-08-19T03:37:36;5.78;;;5.38;;
26696;SDS011;14312;52.614;13.496;2022-08-19T03:40:22;5.32;;;4.93;;
26696;SDS011;14312;52.614;13.496;2022-08-19T03:43:08;6.10;;;5.60;;
26696;SDS011;14312;52.614;13.496;2022-08-19T03:46:01;5.97;;;5.47;;
26696;SDS011;14312;52.614;13.496;2022-08-19T03:48:50;6.38;;;5.88;;
26696;SDS011;14312;52.614;13.496;2022-08-19T03:51:41;7.15;;;5.28;;
26696;SDS011;14312;52.614;13.496;2022-08-19T03:54:28;6.72;;;6.13;;
26696;SDS011;14312;52.614;13.496;2022-08-19T03:57:14;6.28;;;5.68;;
26696;SDS011;14312;52.614;13.496;2022-08-19T04:00:00;5.53;;;5.13;;
26696;SDS011;14312;52.614;13.496;2022-08-19T04:02:46;5.80;;;5.40;;
26696;SDS011;14312;52.614;13.496;2022-08-19T04:05:32;6.53;;;5.93;;
26696;SDS011;14312;52.614;13.496;2022-08-19T04:08:18;6.13;;;5.63;;
26696;SDS011;14312;52.614;13.496;2022-08-19T04:11:06;5.80;;;5.40;;
26696;SDS011;14312;52.614;13.496;2022-08-19T04:13:54;5.60;;;5.10;;
26696;SDS011;14312;52.614;13.496;2022-08-19T04:16:40;5.57;;;5.18;;
26696;SDS011;14312;52.614;13.496;2022-08-19T04:19:29;6.35;;;5.80;;
26696;SDS011;14312;52.614;13.496;2022-08-19T04:22:16;5.80;;;5.40;;
26696;SDS011;14312;52.614;13.496;2022-08-19T04:25:02;6.93;;;6.25;;
26696;SDS011;14312;52.614;13.496;2022-08-19T04:27:48;5.95;;;5.45;;
26696;SDS011;14312;52.614;13.496;2022-08-19T04:30:45;6.25;;;5.80;;
26696;SDS011;14312;52.614;13.496;2022-08-19T04:33:33;6.57;;;6.07;;
26696;SDS011;14312;52.614;13.496;2022-08-19T04:36:19;6.13;;;5.65;;
26696;SDS011;14312;52.614;13.496;2022-08-19T04:39:09;6.05;;;5.65;;
26696;SDS011;14312;52.614;13.496;2022-08-19T04:42:00;6.30;;;5.80;;
26696;SDS011;14312;52.614;13.496;2022-08-19T04:45:06;6.20;;;5.70;;
26696;SDS011;14312;52.614;13.496;2022-08-19T04:47:57;5.90;;;5.43;;
26696;SDS011;14312;52.614;13.496;2022-08-19T04:50:43;6.43;;;5.93;;
26696;SDS011;14312;52.614;13.496;2022-08-19T04:53:29;5.78;;;5.28;;
26696;SDS011;14312;52.614;13.496;2022-08-19T04:56:17;6.25;;;5.75;;
26696;SDS011;14312;52.614;13.496;2022-08-19T04:59:07;6.20;;;5.70;;
26696;SDS011;14312;52.614;13.496;2022-08-19T05:01:53;6.13;;;5.70;;
26696;SDS011;14312;52.614;13.496;2022-08-19T05:04:40;6.10;;;5.68;;
26696;SDS011;14312;52.614;13.496;2022-08-19T05:07:26;6.40;;;5.90;;
26696;SDS011;14312;52.614;13.496;2022-08-19T05:10:12;5.75;;;5.35;;
26696;SDS011;14312;52.614;13.496;2022-08-19T05:12:58;6.30;;;5.88;;
26696;SDS011;14312;52.614;13.496;2022-08-19T05:15:45;5.30;;;4.90;;
26696;SDS011;14312;52.614;13.496;2022-08-19T05:18:43;5.50;;;5.10;;
26696;SDS011;14312;52.614;13.496;2022-08-19T05:21:48;6.07;;;5.68;;
26696;SDS011;14312;52.614;13.496;2022-08-19T05:24:52;7.05;;;6.30;;
26696;SDS011;14312;52.614;13.496;2022-08-19T05:27:38;6.47;;;5.88;;
26696;SDS011;14312;52.614;13.496;2022-08-19T05:30:25;6.00;;;5.60;;
26696;SDS011;14312;52.614;13.496;2022-08-19T05:33:11;6.72;;;6.28;;
26696;SDS011;14312;52.614;13.496;2022-08-19T05:35:57;5.75;;;5.35;;
26696;SDS011;14312;52.614;13.496;2022-08-19T05:38:44;6.78;;;6.28;;
26696;SDS011;14312;52.614;13.496;2022-08-19T05:41:29;6.25;;;5.72;;
26696;SDS011;14312;52.614;13.496;2022-08-19T05:44:16;5.13;;;4.72;;
26696;SDS011;14312;52.614;13.496;2022-08-19T05:47:03;6.40;;;5.90;;
26696;SDS011;14312;52.614;13.496;2022-08-19T05:49:51;5.82;;;5.32;;
26696;SDS011;14312;52.614;13.496;2022-08-19T05:52:37;6.55;;;5.95;;
26696;SDS011;14312;52.614;13.496;2022-08-19T05:55:23;7.05;;;6.45;;
26696;SDS011;14312;52.614;13.496;2022-08-19T05:58:09;7.10;;;6.40;;
26696;SDS011;14312;52.614;13.496;2022-08-19T06:00:55;6.47;;;6.00;;
26696;SDS011;14312;52.614;13.496;2022-08-19T06:03:41;6.80;;;6.28;;
26696;SDS011;14312;52.614;13.496;2022-08-19T06:06:27;6.70;;;6.20;;
26696;SDS011;14312;52.614;13.496;2022-08-19T06:09:13;7.57;;;6.97;;
26696;SDS011;14312;52.614;13.496;2022-08-19T06:11:59;6.82;;;6.32;;
26696;SDS011;14312;52.614;13.496;2022-08-19T06:14:46;6.95;;;6.45;;
26696;SDS011;14312;52.614;13.496;2022-08-19T06:17:32;7.03;;;6.53;;
26696;SDS011;14312;52.614;13.496;2022-08-19T06:20:20;8.20;;;7.60;;
26696;SDS011;14312;52.614;13.496;2022-08-19T06:23:06;7.25;;;6.65;;
26696;SDS011;14312;52.614;13.496;2022-08-19T06:25:52;7.65;;;7.15;;
26696;SDS011;14312;52.614;13.496;2022-08-19T06:28:38;6.95;;;6.40;;
26696;SDS011;14312;52.614;13.496;2022-08-19T06:31:29;6.97;;;6.28;;
26696;SDS011;14312;52.614;13.496;2022-08-19T06:34:18;6.25;;;5.75;;
26696;SDS011;14312;52.614;13.496;2022-08-19T06:37:05;6.47;;;5.88;;
26696;SDS011;14312;52.614;13.496;2022-08-19T06:39:51;7.00;;;6.50;;
26696;SDS011;14312;52.614;13.496;2022-08-19T06:42:37;6.90;;;6.38;;
26696;SDS011;14312;52.614;13.496;2022-08-19T06:45:24;7.22;;;6.72;;
26696;SDS011;14312;52.614;13.496;2022-08-19T06:48:09;7.03;;;6.53;;
26696;SDS011;14312;52.614;13.496;2022-08-19T06:50:55;8.20;;;7.50;;
26696;SDS011;14312;52.614;13.496;2022-08-19T06:53:41;7.82;;;7.22;;
26696;SDS011;14312;52.614;13.496;2022-08-19T06:56:31;7.70;;;7.10;;
26696;SDS011;14312;52.614;13.496;2022-08-19T06:59:21;7.63;;;7.13;;
26696;SDS011;14312;52.614;13.496;2022-08-19T07:02:09;7.28;;;6.68;;
26696;SDS011;14312;52.614;13.496;2022-08-19T07:04:55;7.65;;;7.05;;
26696;SDS011;14312;52.614;13.496;2022-08-19T07:07:43;7.05;;;6.55;;
26696;SDS011;14312;52.614;13.496;2022-08-19T07:10:29;6.55;;;6.05;;
26696;SDS011;14312;52.614;13.496;2022-08-19T07:13:17;7.55;;;6.95;;
26696;SDS011;14312;52.614;13.496;2022-08-19T07:16:06;7.90;;;7.20;;
26696;SDS011;14312;52.614;13.496;2022-08-19T07:18:53;6.88;;;6.35;;
26696;SDS011;14312;52.614;13.496;2022-08-19T07:21:39;7.32;;;6.72;;
26696;SDS011;14312;52.614;13.496;2022-08-19T07:24:25;7.03;;;6.53;;
26696;SDS011;14312;52.614;13.496;2022-08-19T07:27:13;6.82;;;6.32;;
26696;SDS011;14312;52.614;13.496;2022-08-19T07:29:59;7.57;;;7.07;;
26696;SDS011;14312;52.614;13.496;2022-08-19T07:32:45;7.43;;;6.90;;
26696;SDS011;14312;52.614;13.496;2022-08-19T07:35:31;8.13;;;7.53;;
26696;SDS011;14312;52.614;13.496;2022-08-19T07:38:17;8.07;;;7.47;;
26696;SDS011;14312;52.614;13.496;2022-08-19T07:41:03;7.82;;;7.22;;
26696;SDS011;14312;52.614;13.496;2022-08-19T07:43:49;8.00;;;7.40;;
26696;SDS011;14312;52.614;13.496;2022-08-19T07:46:37;7.90;;;7.32;;
26696;SDS011;14312;52.614;13.496;2022-08-19T07:49:25;7.95;;;7.35;;
26696;SDS011;14312;52.614;13.496;2022-08-19T07:52:11;7.93;;;7.32;;
26696;SDS011;14312;52.614;13.496;2022-08-19T07:54:57;8.55;;;7.85;;
26696;SDS011;14312;52.614;13.496;2022-08-19T07:57:45;7.40;;;6.90;;
26696;SDS011;14312;52.614;13.496;2022-08-19T08:00:31;7.55;;;6.95;;
26696;SDS011;14312;52.614;13.496;2022-08-19T08:03:18;7.38;;;6.88;;
26696;SDS011;14312;52.614;13.496;2022-08-19T08:06:05;8.50;;;7.80;;
26696;SDS011;14312;52.614;13.496;2022-08-19T08:09:10;8.05;;;7.35;;
26696;SDS011;14312;52.614;13.496;2022-08-19T08:11:57;7.50;;;7.00;;
26696;SDS011;14312;52.614;13.496;2022-08-19T08:14:48;7.22;;;6.72;;
26696;SDS011;14312;52.614;13.496;2022-08-19T08:17:35;7.75;;;7.15;;
26696;SDS011;14312;52.614;13.496;2022-08-19T08:20:22;7.28;;;6.78;;
26696;SDS011;14312;52.614;13.496;2022-08-19T08:23:08;7.15;;;6.65;;
26696;SDS011;14312;52.614;13.496;2022-08-19T08:26:10;8.70;;;8.00;;
26696;SDS011;14312;52.614;13.496;2022-08-19T08:28:56;8.00;;;7.38;;
26696;SDS011;14312;52.614;13.496;2022-08-19T08:31:42;8.15;;;7.55;;
26696;SDS011;14312;52.614;13.496;2022-08-19T08:34:29;10.02;;;9.23;;
26696;SDS011;14312;52.614;13.496;2022-08-19T08:37:15;8.30;;;7.70;;
26696;SDS011;14312;52.614;13.496;2022-08-19T08:40:10;8.10;;;7.50;;
26696;SDS011;14312;52.614;13.496;2022-08-19T08:43:08;8.70;;;8.10;;
26696;SDS011;14312;52.614;13.496;2022-08-19T08:46:12;7.75;;;7.25;;
26696;SDS011;14312;52.614;13.496;2022-08-19T08:49:06;7.68;;;7.07;;
26696;SDS011;14312;52.614;13.496;2022-08-19T08:52:19;7.38;;;6.78;;
26696;SDS011;14312;52.614;13.496;2022-08-19T08:55:13;7.43;;;6.85;;
26696;SDS011;14312;52.614;13.496;2022-08-19T08:58:04;7.43;;;6.93;;
26696;SDS011;14312;52.614;13.496;2022-08-19T09:00:52;9.18;;;8.45;;
26696;SDS011;14312;52.614;13.496;2022-08-19T09:03:39;8.25;;;7.65;;
26696;SDS011;14312;52.614;13.496;2022-08-19T09:06:40;9.30;;;8.43;;
26696;SDS011;14312;52.614;13.496;2022-08-19T09:09:45;8.45;;;7.85;;
26696;SDS011;14312;52.614;13.496;2022-08-19T09:16:10;8.90;;;8.20;;
26696;SDS011;14312;52.614;13.496;2022-08-19T09:19:04;9.85;;;9.05;;
26696;SDS011;14312;52.614;13.496;2022-08-19T09:21:52;10.73;;;9.82;;
26696;SDS011;14312;52.614;13.496;2022-08-19T09:24:37;10.52;;;9.82;;
26696;SDS011;14312;52.614;13.496;2022-08-19T09:27:24;10.57;;;9.60;;
26696;SDS011;14312;52.614;13.496;2022-08-19T09:30:13;9.10;;;8.48;;
26696;SDS011;14312;52.614;13.496;2022-08-19T09:33:01;10.20;;;9.40;;
26696;SDS011;14312;52.614;13.496;2022-08-19T09:35:47;9.85;;;9.05;;
26696;SDS011;14312;52.614;13.496;2022-08-19T09:38:33;8.52;;;7.90;;
26696;SDS011;14312;52.614;13.496;2022-08-19T09:41:20;9.13;;;8.35;;
26696;SDS011;14312;52.614;13.496;2022-08-19T09:44:07;8.30;;;7.60;;
26696;SDS011;14312;52.614;13.496;2022-08-19T09:46:53;8.80;;;8.10;;
26696;SDS011;14312;52.614;13.496;2022-08-19T09:49:39;8.40;;;7.78;;
26696;SDS011;14312;52.614;13.496;2022-08-19T09:52:25;8.90;;;8.10;;
26696;SDS011;14312;52.614;13.496;2022-08-19T09:55:11;9.02;;;8.32;;
26696;SDS011;14312;52.614;13.496;2022-08-19T09:57:59;8.63;;;7.93;;
26696;SDS011;14312;52.614;13.496;2022-08-19T10:00:45;8.20;;;7.53;;
26696;SDS011;14312;52.614;13.496;2022-08-19T10:03:32;7.40;;;6.80;;
26696;SDS011;14312;52.614;13.496;2022-08-19T10:06:20;7.45;;;6.95;;
26696;SDS011;14312;52.614;13.496;2022-08-19T10:09:08;6.70;;;6.20;;
26696;SDS011;14312;52.614;13.496;2022-08-19T10:11:55;8.32;;;7.72;;
26696;SDS011;14312;52.614;13.496;2022-08-19T10:14:41;7.13;;;6.55;;
26696;SDS011;14312;52.614;13.496;2022-08-19T10:17:27;8.07;;;6.97;;
26696;SDS011;14312;52.614;13.496;2022-08-19T10:20:14;7.47;;;6.95;;
26696;SDS011;14312;52.614;13.496;2022-08-19T10:23:02;7.85;;;7.18;;
26696;SDS011;14312;52.614;13.496;2022-08-19T10:25:48;7.80;;;7.25;;
26696;SDS011;14312;52.614;13.496;2022-08-19T10:28:35;6.40;;;6.00;;
26696;SDS011;14312;52.614;13.496;2022-08-19T10:31:26;7.63;;;7.03;;
26696;SDS011;14312;52.614;13.496;2022-08-19T10:34:14;7.82;;;7.32;;
26696;SDS011;14312;52.614;13.496;2022-08-19T10:37:00;7.47;;;6.90;;
26696;SDS011;14312;52.614;13.496;2022-08-19T10:39:46;7.28;;;6.78;;
26696;SDS011;14312;52.614;13.496;2022-08-19T10:42:36;8.10;;;7.50;;
26696;SDS011;14312;52.614;13.496;2022-08-19T10:45:23;8.23;;;7.53;;
26696;SDS011;14312;52.614;13.496;2022-08-19T10:48:11;8.05;;;7.35;;
26696;SDS011;14312;52.614;13.496;2022-08-19T10:50:58;7.53;;;7.00;;
26696;SDS011;14312;52.614;13.496;2022-08-19T10:54:03;6.95;;;6.45;;
26696;SDS011;14312;52.614;13.496;2022-08-19T10:56:49;7.53;;;7.00;;
26696;SDS011;14312;52.614;13.496;2022-08-19T10:59:37;7.18;;;6.68;;
26696;SDS011;14312;52.614;13.496;2022-08-19T11:02:26;6.93;;;6.47;;
26696;SDS011;14312;52.614;13.496;2022-08-19T11:05:12;7.78;;;7.18;;
26696;SDS011;14312;52.614;13.496;2022-08-19T11:07:59;7.57;;;7.07;;
26696;SDS011;14312;52.614;13.496;2022-08-19T11:10:45;6.90;;;6.40;;
26696;SDS011;14312;52.614;13.496;2022-08-19T11:13:32;7.18;;;6.53;;
26696;SDS011;14312;52.614;13.496;2022-08-19T11:16:23;7.32;;;6.82;;
26696;SDS011;14312;52.614;13.496;2022-08-19T11:19:11;7.03;;;6.53;;
26696;SDS011;14312;52.614;13.496;2022-08-19T11:21:59;6.70;;;6.30;;
26696;SDS011;14312;52.614;13.496;2022-08-19T11:24:46;7.95;;;7.38;;
26696;SDS011;14312;52.614;13.496;2022-08-19T11:27:32;6.88;;;6.35;;
26696;SDS011;14312;52.614;13.496;2022-08-19T11:30:19;7.30;;;6.70;;
26696;SDS011;14312;52.614;13.496;2022-08-19T11:33:04;7.28;;;6.78;;
26696;SDS011;14312;52.614;13.496;2022-08-19T11:35:50;7.22;;;6.72;;
26696;SDS011;14312;52.614;13.496;2022-08-19T11:38:36;7.22;;;6.70;;
26696;SDS011;14312;52.614;13.496;2022-08-19T11:41:23;7.65;;;7.15;;
26696;SDS011;14312;52.614;13.496;2022-08-19T11:44:09;7.32;;;6.82;;
26696;SDS011;14312;52.614;13.496;2022-08-19T11:46:56;8.20;;;7.60;;
26696;SDS011;14312;52.614;13.496;2022-08-19T11:49:42;7.15;;;6.55;;
26696;SDS011;14312;52.614;13.496;2022-08-19T11:52:27;8.02;;;7.35;;
26696;SDS011;14312;52.614;13.496;2022-08-19T11:55:14;7.00;;;6.50;;
26696;SDS011;14312;52.614;13.496;2022-08-19T11:58:01;6.82;;;6.32;;
26696;SDS011;14312;52.614;13.496;2022-08-19T12:00:47;7.68;;;7.07;;
26696;SDS011;14312;52.614;13.496;2022-08-19T12:03:33;6.45;;;6.05;;
26696;SDS011;14312;52.614;13.496;2022-08-19T12:06:21;6.50;;;6.00;;
26696;SDS011;14312;52.614;13.496;2022-08-19T12:09:11;6.10;;;5.60;;
26696;SDS011;14312;52.614;13.496;2022-08-19T12:11:57;7.47;;;6.97;;
26696;SDS011;14312;52.614;13.496;2022-08-19T12:14:42;7.13;;;6.43;;
26696;SDS011;14312;52.614;13.496;2022-08-19T12:17:28;5.93;;;5.43;;
26696;SDS011;14312;52.614;13.496;2022-08-19T12:20:16;6.38;;;5.97;;
26696;SDS011;14312;52.614;13.496;2022-08-19T12:23:03;6.18;;;5.72;;
26696;SDS011;14312;52.614;13.496;2022-08-19T12:25:49;6.55;;;6.05;;
26696;SDS011;14312;52.614;13.496;2022-08-19T12:28:37;6.18;;;5.68;;
26696;SDS011;14312;52.614;13.496;2022-08-19T12:31:23;6.40;;;5.90;;
26696;SDS011;14312;52.614;13.496;2022-08-19T12:34:09;6.22;;;5.82;;
26696;SDS011;14312;52.614;13.496;2022-08-19T12:36:56;6.68;;;6.18;;
26696;SDS011;14312;52.614;13.496;2022-08-19T12:39:43;6.22;;;5.82;;
26696;SDS011;14312;52.614;13.496;2022-08-19T12:42:29;6.30;;;5.90;;
26696;SDS011;14312;52.614;13.496;2022-08-19T12:45:15;6.40;;;6.00;;
26696;SDS011;14312;52.614;13.496;2022-08-19T12:48:01;7.03;;;6.45;;
26696;SDS011;14312;52.614;13.496;2022-08-19T12:50:48;6.68;;;6.18;;
26696;SDS011;14312;52.614;13.496;2022-08-19T12:53:34;7.70;;;7.13;;
26696;SDS011;14312;52.614;13.496;2022-08-19T12:56:21;6.38;;;5.97;;
26696;SDS011;14312;52.614;13.496;2022-08-19T12:59:06;7.32;;;6.82;;
26696;SDS011;14312;52.614;13.496;2022-08-19T13:01:53;8.23;;;7.43;;
26696;SDS011;14312;52.614;13.496;2022-08-19T13:04:39;7.18;;;6.57;;
26696;SDS011;14312;52.614;13.496;2022-08-19T13:07:26;6.72;;;6.18;;
26696;SDS011;14312;52.614;13.496;2022-08-19T13:10:13;6.70;;;6.30;;
26696;SDS011;14312;52.614;13.496;2022-08-19T13:13:02;7.38;;;6.80;;
26696;SDS011;14312;52.614;13.496;2022-08-19T13:15:51;7.35;;;6.75;;
26696;SDS011;14312;52.614;13.496;2022-08-19T13:18:37;6.20;;;5.70;;
26696;SDS011;14312;52.614;13.496;2022-08-19T13:21:25;6.35;;;5.95;;
26696;SDS011;14312;52.614;13.496;2022-08-19T13:24:13;7.43;;;6.78;;
26696;SDS011;14312;52.614;13.496;2022-08-19T13:26:59;6.45;;;6.05;;
26696;SDS011;14312;52.614;13.496;2022-08-19T13:29:46;6.63;;;6.13;;
26696;SDS011;14312;52.614;13.496;2022-08-19T13:32:50;6.72;;;6.22;;
26696;SDS011;14312;52.614;13.496;2022-08-19T13:35:58;6.43;;;6.03;;
26696;SDS011;14312;52.614;13.496;2022-08-19T13:38:45;7.45;;;6.93;;
26696;SDS011;14312;52.614;13.496;2022-08-19T13:41:31;7.15;;;6.65;;
26696;SDS011;14312;52.614;13.496;2022-08-19T13:44:19;6.70;;;6.20;;
26696;SDS011;14312;52.614;13.496;2022-08-19T13:47:05;6.43;;;5.95;;
26696;SDS011;14312;52.614;13.496;2022-08-19T13:49:52;7.22;;;6.65;;
26696;SDS011;14312;52.614;13.496;2022-08-19T13:52:38;5.97;;;5.57;;
26696;SDS011;14312;52.614;13.496;2022-08-19T13:55:25;6.93;;;6.43;;
26696;SDS011;14312;52.614;13.496;2022-08-19T13:58:12;6.72;;;6.28;;
26696;SDS011;14312;52.614;13.496;2022-08-19T14:00:58;6.05;;;5.65;;
26696;SDS011;14312;52.614;13.496;2022-08-19T14:03:44;6.50;;;6.00;;
26696;SDS011;14312;52.614;13.496;2022-08-19T14:06:30;6.18;;;5.72;;
26696;SDS011;14312;52.614;13.496;2022-08-19T14:09:16;6.57;;;6.18;;
26696;SDS011;14312;52.614;13.496;2022-08-19T14:12:02;6.22;;;5.82;;
26696;SDS011;14312;52.614;13.496;2022-08-19T14:14:48;6.25;;;5.85;;
26696;SDS011;14312;52.614;13.496;2022-08-19T14:17:37;7.03;;;6.53;;
26696;SDS011;14312;52.614;13.496;2022-08-19T14:20:26;7.18;;;6.60;;
26696;SDS011;14312;52.614;13.496;2022-08-19T14:23:12;6.72;;;6.22;;
26696;SDS011;14312;52.614;13.496;2022-08-19T14:26:09;6.22;;;5.82;;
26696;SDS011;14312;52.614;13.496;2022-08-19T14:28:58;6.25;;;5.75;;
26696;SDS011;14312;52.614;13.496;2022-08-19T14:31:44;6.22;;;5.82;;
26696;SDS011;14312;52.614;13.496;2022-08-19T14:34:30;5.78;;;5.38;;
26696;SDS011;14312;52.614;13.496;2022-08-19T14:37:17;5.93;;;5.53;;
26696;SDS011;14312;52.614;13.496;2022-08-19T14:40:03;6.70;;;6.20;;
26696;SDS011;14312;52.614;13.496;2022-08-19T14:42:50;6.47;;;6.07;;
26696;SDS011;14312;52.614;13.496;2022-08-19T14:45:36;5.93;;;5.53;;
26696;SDS011;14312;52.614;13.496;2022-08-19T14:48:23;5.85;;;5.45;;
26696;SDS011;14312;52.614;13.496;2022-08-19T14:51:09;6.20;;;5.80;;
26696;SDS011;14312;52.614;13.496;2022-08-19T14:53:55;6.35;;;5.95;;
26696;SDS011;14312;52.614;13.496;2022-08-19T14:56:41;5.35;;;4.95;;
26696;SDS011;14312;52.614;13.496;2022-08-19T14:59:27;6.90;;;6.40;;
26696;SDS011;14312;52.614;13.496;2022-08-19T15:02:13;6.50;;;6.10;;
26696;SDS011;14312;52.614;13.496;2022-08-19T15:04:59;5.70;;;5.30;;
26696;SDS011;14312;52.614;13.496;2022-08-19T15:07:46;6.30;;;5.88;;
26696;SDS011;14312;52.614;13.496;2022-08-19T15:10:32;5.95;;;5.55;;
26696;SDS011;14312;52.614;13.496;2022-08-19T15:13:18;5.85;;;5.38;;
26696;SDS011;14312;52.614;13.496;2022-08-19T15:16:04;5.72;;;5.32;;
26696;SDS011;14312;52.614;13.496;2022-08-19T15:18:51;6.03;;;5.55;;
26696;SDS011;14312;52.614;13.496;2022-08-19T15:21:39;5.85;;;5.40;;
26696;SDS011;14312;52.614;13.496;2022-08-19T15:24:25;6.50;;;6.00;;
26696;SDS011;14312;52.614;13.496;2022-08-19T15:27:13;5.97;;;5.57;;
26696;SDS011;14312;52.614;13.496;2022-08-19T15:29:59;5.93;;;5.53;;
26696;SDS011;14312;52.614;13.496;2022-08-19T15:32:45;6.38;;;5.80;;
26696;SDS011;14312;52.614;13.496;2022-08-19T15:35:31;6.65;;;6.15;;
26696;SDS011;14312;52.614;13.496;2022-08-19T15:38:17;5.95;;;5.55;;
26696;SDS011;14312;52.614;13.496;2022-08-19T15:41:15;6.05;;;5.63;;
26696;SDS011;14312;52.614;13.496;2022-08-19T15:44:10;6.20;;;5.70;;
26696;SDS011;14312;52.614;13.496;2022-08-19T15:47:00;5.43;;;5.03;;
26696;SDS011;14312;52.614;13.496;2022-08-19T15:49:46;6.10;;;5.60;;
26696;SDS011;14312;52.614;13.496;2022-08-19T15:52:32;5.32;;;4.93;;
26696;SDS011;14312;52.614;13.496;2022-08-19T15:55:19;6.22;;;5.82;;
26696;SDS011;14312;52.614;13.496;2022-08-19T15:58:08;5.75;;;5.35;;
26696;SDS011;14312;52.614;13.496;2022-08-19T16:01:16;5.97;;;5.57;;
26696;SDS011;14312;52.614;13.496;2022-08-19T16:04:21;5.60;;;5.10;;
26696;SDS011;14312;52.614;13.496;2022-08-19T16:07:25;6.35;;;5.35;;
26696;SDS011;14312;52.614;13.496;2022-08-19T16:10:11;5.32;;;4.95;;
26696;SDS011;14312;52.614;13.496;2022-08-19T16:12:58;5.28;;;4.95;;
26696;SDS011;14312;52.614;13.496;2022-08-19T16:15:44;5.57;;;5.18;;
26696;SDS011;14312;52.614;13.496;2022-08-19T16:18:29;5.50;;;5.10;;
26696;SDS011;14312;52.614;13.496;2022-08-19T16:21:16;5.95;;;5.55;;
26696;SDS011;14312;52.614;13.496;2022-08-19T16:24:05;5.43;;;5.03;;
26696;SDS011;14312;52.614;13.496;2022-08-19T16:26:52;5.38;;;4.97;;
26696;SDS011;14312;52.614;13.496;2022-08-19T16:29:38;5.50;;;5.10;;
26696;SDS011;14312;52.614;13.496;2022-08-19T16:32:24;6.20;;;5.80;;
26696;SDS011;14312;52.614;13.496;2022-08-19T16:35:10;6.20;;;5.80;;
26696;SDS011;14312;52.614;13.496;2022-08-19T16:37:56;5.93;;;5.53;;